Time;durP1;ratioP1;P1;durP2;ratioP2;P2;SDS_P1;SDS_P2;PMS_P1;PMS_P2;Temp;Humidity;BMP_temperature;BMP_pressure;BME280_temperature;BME280_humidity;BME280_pressure;Samples;Min_cycle;Max_cycle;Signal;HPM_P1;HPM_P2
2023/06/26 00:01:07;;;;;;;8.95;5.18;;;;;;;20.10;93.46;100784.72;6026877;28;20752;-67
2023/06/26 00:04:03;;;;;;;10.82;5.25;;;;;;;20.04;93.33;100780.97;6009174;28;20070;-66
2023/06/26 00:06:58;;;;;;;9.73;4.90;;;;;;;20.04;93.67;100767.50;6045280;28;20026;-65
2023/06/26 00:09:53;;;;;;;9.47;4.90;;;;;;;19.93;93.92;100768.13;6040519;28;20284;-65
2023/06/26 00:12:49;;;;;;;9.30;5.60;;;;;;;19.92;93.62;100758.38;6022358;28;20042;-65
2023/06/26 00:15:44;;;;;;;9.83;5.10;;;;;;;19.95;94.17;100771.44;6049370;28;20029;-65
2023/06/26 00:18:39;;;;;;;8.60;5.13;;;;;;;19.91;94.36;100769.38;6040596;28;20041;-66
2023/06/26 00:21:34;;;;;;;12.47;5.60;;;;;;;19.79;94.94;100766.44;6045851;28;20038;-66
2023/06/26 00:24:30;;;;;;;7.80;4.57;;;;;;;19.77;94.97;100767.69;6020203;28;20034;-65
2023/06/26 00:27:25;;;;;;;10.50;5.30;;;;;;;19.65;95.36;100750.50;6050187;28;20045;-65
2023/06/26 00:30:20;;;;;;;8.40;5.00;;;;;;;19.72;95.53;100757.53;6048302;28;20056;-65
2023/06/26 00:33:16;;;;;;;9.23;5.23;;;;;;;19.72;95.84;100765.63;6023182;28;20026;-66
2023/06/26 00:36:11;;;;;;;7.35;4.75;;;;;;;19.62;95.59;100749.03;6020454;28;20288;-65
2023/06/26 00:39:06;;;;;;;10.10;5.27;;;;;;;19.58;95.77;100753.16;6034095;28;20083;-66
2023/06/26 00:42:02;;;;;;;14.50;6.07;;;;;;;19.63;96.23;100766.00;6044094;28;20421;-65
2023/06/26 00:44:57;;;;;;;11.57;5.40;;;;;;;19.56;96.41;100761.44;6028276;28;20037;-66
2023/06/26 00:47:52;;;;;;;9.77;5.47;;;;;;;19.51;96.61;100757.72;6039829;28;20040;-65
2023/06/26 00:50:48;;;;;;;9.40;5.50;;;;;;;19.47;96.64;100743.00;6044870;28;20030;-66
2023/06/26 00:53:43;;;;;;;9.07;5.90;;;;;;;19.42;96.66;100745.47;6034370;28;20446;-66
2023/06/26 00:56:39;;;;;;;11.53;5.80;;;;;;;19.41;96.88;100741.09;6049409;28;20033;-65
2023/06/26 00:59:35;;;;;;;11.35;5.90;;;;;;;19.46;97.04;100750.22;6041521;28;20264;-65
2023/06/26 01:02:33;;;;;;;8.65;5.63;;;;;;;19.42;97.13;100749.00;6041746;28;20037;-65
2023/06/26 01:05:29;;;;;;;10.43;5.13;;;;;;;19.32;97.14;100731.53;6037972;28;20033;-67
2023/06/26 01:08:25;;;;;;;9.73;5.20;;;;;;;19.42;97.13;100748.16;6037100;28;20401;-66
2023/06/26 01:11:20;;;;;;;8.38;5.50;;;;;;;19.40;97.22;100739.47;6063217;28;20061;-65
2023/06/26 01:14:15;;;;;;;8.93;5.60;;;;;;;19.33;97.00;100728.63;6031476;28;20123;-66
2023/06/26 01:17:15;;;;;;;8.30;5.30;;;;;;;19.38;96.92;100741.50;6042569;28;20100;-66
2023/06/26 01:20:10;;;;;;;10.70;5.07;;;;;;;19.30;96.81;100717.44;6036040;28;20479;-67
2023/06/26 01:23:14;;;;;;;9.60;5.07;;;;;;;19.27;97.08;100723.25;6041134;28;20044;-65
2023/06/26 01:26:12;;;;;;;8.07;5.05;;;;;;;19.33;97.31;100727.81;6039061;28;20073;-64
2023/06/26 01:29:09;;;;;;;13.70;5.05;;;;;;;19.21;97.29;100713.31;6027295;28;20041;-65
2023/06/26 01:32:05;;;;;;;9.65;4.93;;;;;;;19.13;97.75;100722.38;6054331;28;20042;-66
2023/06/26 01:35:02;;;;;;;11.07;5.47;;;;;;;19.15;97.77;100724.84;6015571;28;20142;-65
2023/06/26 01:38:17;;;;;;;10.52;5.05;;;;;;;18.89;97.93;100701.38;6020057;28;20034;-66
2023/06/26 01:41:13;;;;;;;12.60;5.38;;;;;;;18.94;98.32;100723.94;6047802;28;20117;-66
2023/06/26 01:44:24;;;;;;;9.40;5.25;;;;;;;18.92;98.80;100725.16;6037340;28;20034;-65
2023/06/26 01:47:22;;;;;;;9.45;5.45;;;;;;;18.91;98.90;100718.16;6016580;28;20462;-66
2023/06/26 01:50:22;;;;;;;13.20;6.00;;;;;;;18.81;99.13;100718.50;6027012;28;20026;-65
2023/06/26 01:53:21;;;;;;;10.75;5.35;;;;;;;18.74;99.41;100700.69;6025823;28;20160;-67
2023/06/26 01:56:18;;;;;;;9.82;5.47;;;;;;;18.66;99.55;100703.56;6041020;28;20062;-64
2023/06/26 01:59:14;;;;;;;9.43;5.30;;;;;;;18.61;99.93;100693.41;6040951;28;20032;-65
2023/06/26 02:02:09;;;;;;;11.23;5.88;;;;;;;18.66;99.75;100700.88;6029861;28;20034;-65
2023/06/26 02:05:05;;;;;;;9.90;5.90;;;;;;;18.61;100.00;100704.16;6045262;28;20359;-66
2023/06/26 02:08:03;;;;;;;10.75;5.75;;;;;;;18.60;100.00;100699.78;6053155;28;20322;-65
2023/06/26 02:10:59;;;;;;;11.32;5.68;;;;;;;18.52;100.00;100697.28;6042605;28;20054;-66
2023/06/26 02:13:54;;;;;;;9.40;5.33;;;;;;;18.51;100.00;100695.59;6052514;28;20049;-64
2023/06/26 02:16:49;;;;;;;9.50;5.23;;;;;;;18.42;100.00;100689.56;6053082;28;20484;-66
2023/06/26 02:19:47;;;;;;;10.98;4.95;;;;;;;18.43;100.00;100693.03;6052667;28;20041;-65
2023/06/26 02:22:43;;;;;;;10.45;5.90;;;;;;;18.34;100.00;100681.63;6035788;28;20036;-65
2023/06/26 02:25:38;;;;;;;10.53;5.23;;;;;;;18.37;100.00;100693.84;6045185;28;20467;-65
2023/06/26 02:28:34;;;;;;;10.00;5.50;;;;;;;18.35;100.00;100691.34;6052930;28;20453;-66
2023/06/26 02:31:29;;;;;;;8.80;5.15;;;;;;;18.27;100.00;100679.94;6041648;28;20114;-66
2023/06/26 02:34:25;;;;;;;10.53;5.37;;;;;;;18.20;100.00;100665.66;6044012;28;20026;-65
2023/06/26 02:37:20;;;;;;;8.57;6.00;;;;;;;18.17;100.00;100666.03;6040556;28;20417;-65
2023/06/26 02:40:15;;;;;;;8.93;5.60;;;;;;;18.28;100.00;100678.91;6018793;28;20474;-65
2023/06/26 02:43:11;;;;;;;10.15;5.65;;;;;;;18.22;100.00;100679.69;6052316;28;20268;-66
2023/06/26 02:46:06;;;;;;;11.73;5.87;;;;;;;18.17;100.00;100676.78;6037297;28;20030;-65
2023/06/26 02:49:01;;;;;;;10.90;5.67;;;;;;;18.15;100.00;100678.84;6039074;28;20030;-65
2023/06/26 02:51:57;;;;;;;8.93;5.57;;;;;;;18.14;100.00;100669.09;6024609;28;20037;-65
2023/06/26 02:54:52;;;;;;;9.37;4.80;;;;;;;18.18;100.00;100676.56;6035578;28;20308;-64
2023/06/26 02:57:47;;;;;;;12.63;5.33;;;;;;;18.14;100.00;100666.44;6030091;28;20029;-65
2023/06/26 03:00:43;;;;;;;11.07;5.80;;;;;;;18.12;100.00;100668.47;6049286;28;20029;-67
2023/06/26 03:03:41;;;;;;;12.25;5.93;;;;;;;18.04;100.00;100655.22;6050901;28;20041;-66
2023/06/26 03:06:36;;;;;;;9.50;5.57;;;;;;;18.16;100.00;100664.38;6051646;28;20454;-65
2023/06/26 03:09:31;;;;;;;12.60;6.23;;;;;;;18.11;100.00;100648.84;6045127;28;20038;-65
2023/06/26 03:12:27;;;;;;;11.97;5.67;;;;;;;18.06;100.00;100653.16;6039502;28;20278;-64
2023/06/26 03:15:22;;;;;;;13.13;5.57;;;;;;;18.14;100.00;100658.38;6051117;28;20038;-65
2023/06/26 03:18:18;;;;;;;9.10;5.40;;;;;;;18.03;100.00;100643.66;6051257;28;20022;-65
2023/06/26 03:21:13;;;;;;;12.80;5.95;;;;;;;18.14;99.86;100671.78;6051528;28;20017;-65
2023/06/26 03:24:09;;;;;;;10.97;6.17;;;;;;;18.08;99.83;100661.84;6050557;28;20372;-66
2023/06/26 03:27:04;;;;;;;8.87;5.13;;;;;;;18.11;99.76;100658.75;6042228;28;20596;-64
2023/06/26 03:30:00;;;;;;;10.70;6.38;;;;;;;18.12;100.00;100652.38;6051371;28;20328;-66
2023/06/26 03:32:55;;;;;;;9.13;5.72;;;;;;;17.94;99.71;100639.44;6042392;28;20034;-65
2023/06/26 03:35:51;;;;;;;11.68;5.82;;;;;;;18.02;100.00;100641.16;6037759;28;20040;-65
2023/06/26 03:38:46;;;;;;;11.13;5.03;;;;;;;18.11;99.11;100645.34;6051001;28;20042;-65
2023/06/26 03:41:41;;;;;;;12.53;5.83;;;;;;;18.06;98.95;100639.75;6051204;28;20261;-65
2023/06/26 03:44:37;;;;;;;10.83;5.67;;;;;;;18.04;98.79;100617.66;6050263;28;20087;-65
2023/06/26 03:47:32;;;;;;;14.50;5.87;;;;;;;18.12;98.91;100636.28;6050846;28;20373;-65
2023/06/26 03:50:27;;;;;;;14.20;5.33;;;;;;;17.98;99.33;100624.63;6039787;28;20079;-65
2023/06/26 03:53:23;;;;;;;9.60;5.23;;;;;;;18.08;99.21;100640.38;6042375;28;20040;-65
2023/06/26 03:56:18;;;;;;;9.10;5.75;;;;;;;18.04;98.67;100620.31;6047362;28;20272;-65
2023/06/26 03:59:14;;;;;;;7.87;4.83;;;;;;;18.12;98.37;100629.06;6050735;28;20041;-65
2023/06/26 04:02:12;;;;;;;9.60;6.30;;;;;;;18.21;97.97;100635.91;6050574;28;20350;-66
2023/06/26 04:05:07;;;;;;;10.93;5.65;;;;;;;18.20;97.66;100628.06;6049918;28;20025;-64
2023/06/26 04:08:03;;;;;;;12.18;6.38;;;;;;;18.22;97.25;100626.00;6050416;28;20408;-65
2023/06/26 04:10:58;;;;;;;9.17;5.20;;;;;;;18.18;97.02;100628.25;6050367;28;20025;-64
2023/06/26 04:13:53;;;;;;;10.57;5.97;;;;;;;18.30;96.72;100629.38;6042180;28;20616;-66
2023/06/26 04:16:49;;;;;;;11.10;4.83;;;;;;;18.37;96.20;100634.78;6042023;28;20042;-65
2023/06/26 04:19:44;;;;;;;11.53;5.40;;;;;;;18.46;95.88;100622.81;6040071;28;20034;-65
2023/06/26 04:22:39;;;;;;;9.63;5.00;;;;;;;18.55;95.06;100602.88;6050062;28;20449;-64
2023/06/26 04:25:37;;;;;;;10.27;5.63;;;;;;;18.70;93.70;100608.91;6040874;28;20540;-64
2023/06/26 04:28:33;;;;;;;11.80;5.82;;;;;;;19.06;91.43;100608.59;6047219;28;20030;-65
2023/06/26 04:31:28;;;;;;;10.80;5.57;;;;;;;19.48;89.11;100602.09;6045769;28;20040;-65
2023/06/26 04:34:27;;;;;;;9.57;4.90;;;;;;;19.62;87.37;100609.13;6034221;28;20029;-64
2023/06/26 04:37:24;;;;;;;11.15;4.88;;;;;;;19.80;85.84;100598.56;6035443;28;20533;-65
2023/06/26 04:40:19;;;;;;;9.57;4.82;;;;;;;19.85;84.65;100592.53;6036685;28;20111;-64
2023/06/26 04:43:15;;;;;;;8.50;4.53;;;;;;;20.63;80.10;100615.75;6047338;28;20042;-67
2023/06/26 04:46:10;;;;;;;11.13;5.00;;;;;;;20.80;79.65;100619.63;6027932;28;20072;-65
2023/06/26 04:49:05;;;;;;;11.60;4.83;;;;;;;21.18;75.93;100596.19;6049920;28;20096;-65
2023/06/26 04:52:00;;;;;;;8.97;4.93;;;;;;;20.89;76.65;100595.94;6030797;28;20038;-65
2023/06/26 04:54:56;;;;;;;11.60;5.00;;;;;;;21.14;75.44;100611.19;6045157;28;20033;-66
2023/06/26 04:57:51;;;;;;;8.97;4.83;;;;;;;21.09;75.54;100591.31;6046593;28;20418;-66
2023/06/26 05:00:47;;;;;;;9.52;4.55;;;;;;;21.10;75.04;100588.38;6032262;28;20299;-66
2023/06/26 05:03:42;;;;;;;11.57;4.90;;;;;;;21.39;73.69;100597.69;6017972;28;20486;-66
2023/06/26 05:06:38;;;;;;;7.70;4.30;;;;;;;21.19;74.73;100587.09;6044002;28;20022;-65
2023/06/26 05:09:33;;;;;;;12.00;4.80;;;;;;;21.32;74.24;100580.75;6026329;28;20420;-65
2023/06/26 05:12:28;;;;;;;12.70;3.87;;;;;;;21.56;72.15;100571.00;6031727;28;20026;-65
2023/06/26 05:15:24;;;;;;;8.80;4.38;;;;;;;21.87;71.07;100584.47;6039156;28;20040;-66
2023/06/26 05:18:19;;;;;;;10.13;4.23;;;;;;;21.81;71.74;100585.31;6042891;28;20518;-65
2023/06/26 05:21:15;;;;;;;9.07;4.40;;;;;;;22.21;69.93;100564.13;6037043;28;20101;-66
2023/06/26 05:24:12;;;;;;;11.93;3.90;;;;;;;22.32;69.69;100583.13;6033789;28;20042;-66
2023/06/26 05:27:08;;;;;;;11.85;4.28;;;;;;;22.56;67.41;100567.06;6039641;28;20041;-65
2023/06/26 05:30:05;;;;;;;8.60;4.18;;;;;;;22.64;67.97;100577.59;6040170;28;20049;-65
2023/06/26 05:33:01;;;;;;;7.93;4.28;;;;;;;22.79;65.94;100557.19;6040182;28;20037;-66
2023/06/26 05:35:58;;;;;;;7.93;4.18;;;;;;;22.68;67.08;100562.56;6048330;28;20025;-66
2023/06/26 05:38:53;;;;;;;9.25;4.13;;;;;;;;;;6028608;28;20034;-66
2023/06/26 05:41:49;;;;;;;8.43;3.83;;;;;;;22.86;67.56;100557.09;6030712;28;20030;-67
2023/06/26 05:44:44;;;;;;;6.93;4.28;;;;;;;22.88;66.44;100557.69;6033072;28;20045;-66
2023/06/26 05:47:40;;;;;;;8.38;3.80;;;;;;;22.79;67.82;100542.84;6043880;28;20076;-66
2023/06/26 05:50:35;;;;;;;7.95;3.83;;;;;;;23.21;66.21;100555.31;6050513;28;20414;-66
2023/06/26 05:53:31;;;;;;;7.57;3.58;;;;;;;23.68;65.97;100548.91;6039504;28;20034;-66
2023/06/26 05:56:27;;;;;;;10.50;4.32;;;;;;;23.91;64.50;100536.44;6039008;28;20053;-65
2023/06/26 05:59:22;;;;;;;10.73;4.35;;;;;;;24.07;63.86;100538.41;6027865;28;20038;-66
2023/06/26 06:02:18;;;;;;;11.00;4.18;;;;;;;24.17;63.68;100544.06;6042542;28;20471;-66
2023/06/26 06:05:15;;;;;;;7.75;4.38;;;;;;;24.80;59.58;100544.84;6028867;28;20066;-66
2023/06/26 06:08:10;;;;;;;8.55;4.38;;;;;;;25.01;59.01;100539.75;6040039;28;20079;-67
2023/06/26 06:11:05;;;;;;;9.10;5.10;;;;;;;24.76;59.55;100537.38;6038827;28;20039;-66
2023/06/26 06:14:00;;;;;;;11.40;4.73;;;;;;;24.66;60.62;100529.06;6039678;28;20029;-66
2023/06/26 06:16:56;;;;;;;10.90;4.10;;;;;;;24.69;58.94;100542.97;6036703;28;20397;-67
2023/06/26 06:19:51;;;;;;;9.13;4.33;;;;;;;24.89;59.21;100542.56;6039531;28;20050;-65
2023/06/26 06:22:48;;;;;;;6.87;4.00;;;;;;;24.70;59.54;100546.50;6038946;28;20079;-64
2023/06/26 06:25:43;;;;;;;5.63;3.45;;;;;;;24.99;60.17;100536.47;6029895;28;20038;-66
2023/06/26 06:28:41;;;;;;;7.13;3.40;;;;;;;25.52;57.67;100539.56;6033253;28;20042;-65
2023/06/26 06:31:37;;;;;;;6.07;4.20;;;;;;;25.28;58.15;100527.19;6037514;28;20037;-65
2023/06/26 06:34:32;;;;;;;8.90;4.10;;;;;;;25.96;57.08;100538.59;6030659;28;20402;-65
2023/06/26 06:37:29;;;;;;;8.35;4.28;;;;;;;26.46;53.84;100526.75;6038578;28;20265;-64
2023/06/26 06:40:25;;;;;;;6.35;4.05;;;;;;;25.92;55.24;100515.72;6034863;28;20085;-65
2023/06/26 06:43:21;;;;;;;6.07;3.85;;;;;;;26.00;55.12;100528.03;6033515;28;20038;-64
2023/06/26 06:46:16;;;;;;;8.10;3.70;;;;;;;27.39;51.34;100515.41;6030918;28;20410;-64
2023/06/26 06:49:11;;;;;;;4.83;3.30;;;;;;;27.03;50.99;100517.03;6036978;28;20477;-64
2023/06/26 06:52:06;;;;;;;7.80;3.63;;;;;;;27.97;48.72;100517.16;6031068;28;20736;-65
2023/06/26 06:55:05;;;;;;;5.43;3.63;;;;;;;28.46;47.43;100514.94;6035931;28;20151;-64
2023/06/26 06:58:00;;;;;;;6.30;3.75;;;;;;;27.14;51.33;100517.94;6033228;28;20026;-65
2023/06/26 07:00:55;;;;;;;7.17;4.10;;;;;;;27.28;50.06;100519.13;6031440;28;20080;-65
2023/06/26 07:03:51;;;;;;;11.98;4.45;;;;;;;26.71;51.25;100507.97;6034096;28;20328;-65
2023/06/26 07:06:46;;;;;;;6.93;3.87;;;;;;;26.37;53.20;100507.31;6030078;28;20482;-64
2023/06/26 07:09:41;;;;;;;9.77;4.03;;;;;;;26.95;52.60;100520.22;6035137;28;20045;-64
2023/06/26 07:12:37;;;;;;;6.13;3.75;;;;;;;26.88;52.09;100510.63;6032140;28;20032;-65
2023/06/26 07:15:32;;;;;;;6.47;3.97;;;;;;;26.76;53.08;100515.34;6035358;28;20025;-65
2023/06/26 07:18:28;;;;;;;7.93;3.60;;;;;;;26.86;51.97;100505.41;6031751;28;20397;-66
2023/06/26 07:21:23;;;;;;;7.28;3.88;;;;;;;27.03;51.26;100517.03;6034560;28;20046;-66
2023/06/26 07:24:18;;;;;;;6.10;3.87;;;;;;;27.18;50.61;100506.25;6033420;28;20038;-65
2023/06/26 07:27:15;;;;;;;7.03;4.20;;;;;;;27.30;50.26;100521.59;6025145;28;20037;-65
2023/06/26 07:30:11;;;;;;;5.93;3.95;;;;;;;28.06;47.78;100501.13;6045822;28;20524;-66
2023/06/26 07:33:06;;;;;;;5.32;3.78;;;;;;;27.14;52.26;100521.47;6032182;28;20026;-65
2023/06/26 07:36:01;;;;;;;9.07;3.80;;;;;;;27.15;49.90;100509.50;6030760;28;20085;-65
2023/06/26 07:38:57;;;;;;;6.63;4.22;;;;;;;26.89;50.27;100526.69;6036014;28;20350;-64
2023/06/26 07:41:52;;;;;;;6.07;4.00;;;;;;;26.90;50.89;100525.63;6025643;28;20470;-66
2023/06/26 07:44:47;;;;;;;5.50;4.07;;;;;;;27.38;50.50;100521.94;6034267;28;20026;-65
2023/06/26 07:47:43;;;;;;;8.27;4.07;;;;;;;27.35;50.68;100527.06;6031621;28;20034;-65
2023/06/26 07:50:38;;;;;;;7.03;3.90;;;;;;;27.89;49.86;100514.94;6028804;28;20168;-65
2023/06/26 07:53:33;;;;;;;6.00;4.13;;;;;;;28.04;49.36;100509.59;6030364;28;20049;-65
2023/06/26 07:56:28;;;;;;;6.80;4.27;;;;;;;27.55;49.60;100519.09;6031947;28;20292;-64
2023/06/26 07:59:25;;;;;;;6.97;4.37;;;;;;;27.61;50.00;100509.88;6028944;28;20058;-66
2023/06/26 08:02:21;;;;;;;7.78;3.95;;;;;;;27.81;49.69;100511.88;6028497;28;20042;-65
2023/06/26 08:05:16;;;;;;;7.07;4.75;;;;;;;27.56;50.60;100504.38;6030398;28;20045;-65
2023/06/26 08:08:11;;;;;;;5.13;4.13;;;;;;;27.72;50.41;100517.03;6035308;28;20042;-65
2023/06/26 08:11:07;;;;;;;8.07;4.13;;;;;;;28.10;50.91;100513.97;6030900;28;20054;-65
2023/06/26 08:14:02;;;;;;;9.57;4.10;;;;;;;28.04;52.00;100509.59;6025773;28;20031;-66
2023/06/26 08:16:59;;;;;;;7.93;4.13;;;;;;;28.43;51.06;100517.41;6026807;28;20038;-65
2023/06/26 08:19:54;;;;;;;9.10;4.40;;;;;;;28.44;50.21;100516.28;6032075;28;20136;-65
2023/06/26 08:22:52;;;;;;;7.40;4.53;;;;;;;28.36;49.67;100512.19;6049140;28;20489;-66
2023/06/26 08:25:47;;;;;;;8.88;4.65;;;;;;;28.01;48.54;100521.00;6035571;28;20038;-66
2023/06/26 08:28:42;;;;;;;6.78;4.30;;;;;;;27.66;48.19;100505.28;6021655;28;20092;-65
2023/06/26 08:31:39;;;;;;;6.80;4.67;;;;;;;27.34;49.34;100509.09;6033764;28;20109;-66
2023/06/26 08:34:34;;;;;;;7.15;4.18;;;;;;;27.60;49.39;100519.13;6025589;28;20124;-66
2023/06/26 08:37:32;;;;;;;7.90;4.37;;;;;;;27.30;48.35;100521.59;6046889;28;20045;-66
2023/06/26 08:40:27;;;;;;;7.75;4.63;;;;;;;27.51;48.90;100502.44;6028779;28;20056;-65
2023/06/26 08:43:23;;;;;;;7.38;4.55;;;;;;;27.81;47.87;100503.69;6044089;28;20031;-66
2023/06/26 08:46:19;;;;;;;10.00;4.70;;;;;;;28.57;46.40;100508.41;6048020;28;20523;-66
2023/06/26 08:49:19;;;;;;;8.23;4.38;;;;;;;28.47;45.60;100496.66;6026505;28;20026;-65
2023/06/26 08:52:21;;;;;;;6.13;4.30;;;;;;;28.74;48.14;100502.75;6037531;28;20018;-66
2023/06/26 08:55:18;;;;;;;7.00;4.45;;;;;;;28.67;47.64;100504.94;6036606;28;20112;-65
2023/06/26 08:58:13;;;;;;;8.70;4.68;;;;;;;28.98;48.07;100506.59;6038699;28;20046;-66
2023/06/26 09:01:09;;;;;;;8.40;4.85;;;;;;;28.97;48.17;100504.97;6014700;28;20023;-66
2023/06/26 09:04:05;;;;;;;6.15;4.10;;;;;;;28.48;49.06;100498.31;6040095;28;20026;-65
2023/06/26 09:07:00;;;;;;;7.43;4.55;;;;;;;28.52;49.74;100488.47;6043511;28;20459;-65
2023/06/26 09:09:56;;;;;;;9.23;4.60;;;;;;;28.59;46.74;100486.31;6047851;28;20026;-66
2023/06/26 09:12:55;;;;;;;7.65;4.28;;;;;;;28.71;48.09;100489.63;6029748;28;20644;-66
2023/06/26 09:15:50;;;;;;;;;;;;;;;28.61;46.71;100486.88;6032543;28;20076;-66
2023/06/26 09:18:46;;;;;;;8.40;5.00;;;;;;;28.62;47.80;100502.16;6045903;28;19905;-66
2023/06/26 09:21:42;;;;;;;8.35;4.65;;;;;;;28.91;47.77;100500.59;6047709;28;20333;-66
2023/06/26 09:24:38;;;;;;;8.38;4.75;;;;;;;28.91;48.01;100495.13;6045393;28;20109;-65
2023/06/26 09:27:35;;;;;;;8.13;5.00;;;;;;;28.96;47.17;100503.31;6039637;28;20038;-66
2023/06/26 09:30:32;;;;;;;7.15;5.10;;;;;;;28.56;46.41;100514.97;6032244;28;20030;-65
2023/06/26 09:33:27;;;;;;;7.50;4.32;;;;;;;28.71;49.01;100525.13;6032371;28;20405;-66
2023/06/26 09:36:24;;;;;;;11.13;5.00;;;;;;;28.91;50.13;100526.00;6029662;28;20029;-65
2023/06/26 09:39:20;;;;;;;9.25;5.07;;;;;;;29.06;49.69;100514.25;6040822;28;20030;-64
2023/06/26 09:42:16;;;;;;;7.85;4.70;;;;;;;29.21;47.35;100514.28;6035236;28;20038;-65
2023/06/26 09:45:17;;;;;;;7.87;4.90;;;;;;;29.09;48.04;100518.34;6033844;28;20061;-65
2023/06/26 09:48:14;;;;;;;8.07;5.63;;;;;;;28.99;49.32;100501.97;6038089;28;20271;-66
2023/06/26 09:51:09;;;;;;;8.05;5.25;;;;;;;28.84;48.57;100508.22;6033230;28;20045;-65
2023/06/26 09:54:06;;;;;;;9.50;5.45;;;;;;;28.52;50.82;100502.13;6028910;28;20394;-66
2023/06/26 09:57:12;;;;;;;11.23;5.95;;;;;;;27.87;51.25;100522.56;6040207;28;20033;-65
2023/06/26 10:00:09;;;;;;;10.55;5.40;;;;;;;27.99;52.72;100531.38;6026414;28;20109;-65
2023/06/26 10:03:04;;;;;;;9.73;5.60;;;;;;;28.17;51.04;100506.38;6029630;28;20034;-65
2023/06/26 10:06:00;;;;;;;8.70;5.80;;;;;;;28.47;50.98;100507.56;6036953;28;20548;-65
2023/06/26 10:08:56;;;;;;;7.70;5.97;;;;;;;28.47;50.24;100527.50;6028237;28;20158;-66
2023/06/26 10:12:20;;;;;;;9.25;6.07;;;;;;;28.02;51.01;100533.56;6038490;28;20042;-65
2023/06/26 10:15:16;;;;;;;9.02;5.70;;;;;;;28.24;51.56;100517.84;6034326;28;20060;-66
2023/06/26 10:18:13;;;;;;;8.60;6.20;;;;;;;28.10;51.07;100530.34;6032448;28;20129;-65
2023/06/26 10:21:09;;;;;;;13.82;6.57;;;;;;;27.64;52.47;100528.44;6042721;28;20126;-65
2023/06/26 10:24:05;;;;;;;14.05;6.22;;;;;;;27.12;54.54;100550.84;6017813;28;20042;-65
2023/06/26 10:27:09;;;;;;;14.95;6.53;;;;;;;26.67;57.03;100561.25;6008245;28;20054;-66
2023/06/26 10:30:16;;;;;;;11.48;6.18;;;;;;;26.35;56.44;100563.88;6069455;28;20048;-65
2023/06/26 10:33:12;;;;;;;11.20;5.80;;;;;;;26.16;57.39;100564.44;6059850;28;20042;-65
2023/06/26 10:36:15;;;;;;;9.13;6.07;;;;;;;26.06;57.94;100586.84;6065174;28;20121;-65
2023/06/26 10:39:10;;;;;;;11.52;6.32;;;;;;;25.96;58.17;100586.69;6074264;28;20037;-65
2023/06/26 10:42:10;;;;;;;11.33;6.00;;;;;;;25.70;58.88;100581.94;6077132;28;20090;-65
2023/06/26 10:45:15;;;;;;;;;;;;;;;25.92;58.55;100588.28;6076012;28;20031;-65
2023/06/26 10:48:12;;;;;;;;;;;;;;;26.18;58.03;100605.78;6073233;28;19912;-65
2023/06/26 10:51:13;;;;;;;12.75;5.80;;;;;;;26.27;56.96;100588.78;6076404;28;19913;-64
2023/06/26 10:54:13;;;;;;;11.40;5.60;;;;;;;26.67;57.17;100588.47;6080653;28;20037;-65
2023/06/26 10:57:09;;;;;;;13.02;6.72;;;;;;;26.92;57.55;100586.06;6076426;28;20032;-65
2023/06/26 11:00:12;;;;;;;12.10;8.02;;;;;;;26.56;59.56;100608.47;6052231;28;20050;-65
2023/06/26 11:03:22;;;;;;;13.30;7.32;;;;;;;25.91;62.10;100617.34;6048928;28;20477;-65
2023/06/26 11:06:20;;;;;;;16.67;8.07;;;;;;;25.34;64.78;100610.38;6035214;28;20054;-67
2023/06/26 11:09:18;;;;;;;12.50;7.50;;;;;;;24.95;65.42;100622.16;6032603;28;20041;-66
2023/06/26 11:12:14;;;;;;;15.13;6.95;;;;;;;25.14;64.09;100623.63;6032969;28;20030;-65
2023/06/26 11:15:14;;;;;;;8.63;5.05;;;;;;;24.42;63.40;100661.19;6031892;28;20037;-64
2023/06/26 11:18:10;;;;;;;9.43;5.20;;;;;;;23.56;65.21;100637.44;6031837;28;20511;-63
2023/06/26 11:21:11;;;;;;;11.35;4.60;;;;;;;23.12;68.69;100659.53;6032458;28;20088;-66
2023/06/26 11:24:07;;;;;;;8.93;4.75;;;;;;;22.72;73.51;100674.63;6033109;28;20081;-66
2023/06/26 11:27:03;;;;;;;11.65;6.13;;;;;;;21.61;87.41;100671.03;6030873;28;20462;-65
2023/06/26 11:29:58;;;;;;;17.63;8.85;;;;;;;21.17;92.60;100674.66;6030544;28;20069;-65
2023/06/26 11:33:02;;;;;;;11.73;5.80;;;;;;;21.33;92.56;100666.84;6030897;28;20057;-66
2023/06/26 11:36:08;;;;;;;11.43;6.53;;;;;;;21.85;89.04;100675.66;6033672;28;20029;-65
2023/06/26 11:39:06;;;;;;;12.13;6.85;;;;;;;22.12;86.51;100669.00;6035405;28;20457;-65
2023/06/26 11:42:01;;;;;;;13.10;6.88;;;;;;;22.89;84.69;100689.16;6021101;28;20042;-65
2023/06/26 11:44:57;;;;;;;17.92;7.20;;;;;;;23.61;81.41;100675.50;6032169;28;20036;-66
2023/06/26 11:47:54;;;;;;;12.83;6.50;;;;;;;23.58;77.47;100675.97;6034812;28;20034;-66
2023/06/26 11:50:51;;;;;;;11.38;7.15;;;;;;;23.33;78.57;100699.63;6029749;28;20109;-65
2023/06/26 11:53:47;;;;;;;14.45;6.93;;;;;;;23.06;80.04;100709.97;6019329;28;20119;-65
2023/06/26 11:56:43;;;;;;;12.70;7.30;;;;;;;22.94;80.49;100698.25;6034666;28;20030;-65
2023/06/26 11:59:39;;;;;;;15.10;7.37;;;;;;;22.81;80.56;100694.88;6031215;28;20120;-66
2023/06/26 12:02:35;;;;;;;13.55;7.55;;;;;;;22.82;81.26;100707.38;6031729;28;20037;-65
2023/06/26 12:05:30;;;;;;;14.32;7.30;;;;;;;22.65;82.99;100723.34;6026308;28;20045;-65
2023/06/26 12:08:26;;;;;;;16.47;7.07;;;;;;;22.47;84.61;100710.63;6034591;28;20122;-65
2023/06/26 12:11:21;;;;;;;14.73;8.13;;;;;;;22.76;83.89;100719.91;6030794;28;20305;-66
2023/06/26 12:14:17;;;;;;;13.43;7.28;;;;;;;22.96;82.62;100708.88;6023089;28;20093;-65
2023/06/26 12:17:13;;;;;;;13.13;7.03;;;;;;;23.65;80.13;100705.63;6045424;28;20441;-66
2023/06/26 12:20:22;;;;;;;15.25;7.53;;;;;;;24.12;78.50;100701.97;6024998;28;20038;-65
2023/06/26 12:23:17;;;;;;;16.92;7.75;;;;;;;24.34;75.22;100710.34;6019071;28;20057;-66
2023/06/26 12:26:19;;;;;;;11.67;7.70;;;;;;;24.41;75.77;100721.88;6020599;28;20030;-66
2023/06/26 12:29:17;;;;;;;14.02;7.03;;;;;;;24.34;76.38;100691.38;6023351;28;20297;-66
2023/06/26 12:32:14;;;;;;;11.25;7.40;;;;;;;25.06;74.15;100686.44;6031458;28;20041;-66
2023/06/26 12:35:10;;;;;;;10.10;6.60;;;;;;;25.97;68.24;100697.91;6034154;28;20033;-65
2023/06/26 12:38:09;;;;;;;9.82;6.70;;;;;;;26.19;65.11;100694.44;6024842;28;20444;-66
2023/06/26 12:41:05;;;;;;;9.75;7.45;;;;;;;25.79;64.94;100687.25;6037086;28;20029;-65
2023/06/26 12:44:00;;;;;;;8.87;6.13;;;;;;;24.68;68.78;100686.94;6024317;28;20040;-66
2023/06/26 12:47:00;;;;;;;16.73;6.53;;;;;;;23.83;71.10;100707.44;6029876;28;20504;-65
2023/06/26 12:49:56;;;;;;;13.80;6.30;;;;;;;23.51;72.99;100713.13;6024818;28;20289;-65
2023/06/26 12:52:51;;;;;;;11.32;6.45;;;;;;;23.45;74.46;100719.47;6020698;28;20168;-66
2023/06/26 12:55:46;;;;;;;10.97;5.80;;;;;;;23.82;73.76;100727.47;6036735;28;20034;-66
2023/06/26 12:58:42;;;;;;;11.20;4.83;;;;;;;24.36;72.74;100719.06;6031571;28;20030;-66
2023/06/26 13:01:37;;;;;;;9.40;5.10;;;;;;;24.90;69.58;100727.88;6034605;28;20272;-65
2023/06/26 13:04:32;;;;;;;12.43;4.70;;;;;;;25.04;65.77;100723.84;6029435;28;20026;-66
2023/06/26 13:07:28;;;;;;;8.10;4.15;;;;;;;25.32;63.78;100723.88;6029103;28;20423;-65
2023/06/26 13:10:23;;;;;;;9.20;4.20;;;;;;;25.47;62.68;100729.59;6030899;28;20613;-66
2023/06/26 13:13:18;;;;;;;6.87;3.90;;;;;;;25.38;61.56;100722.91;6032559;28;20041;-66
2023/06/26 13:16:14;;;;;;;8.93;4.10;;;;;;;25.71;59.93;100716.75;6036293;28;20058;-65
2023/06/26 13:19:09;;;;;;;7.97;3.63;;;;;;;25.90;59.29;100729.03;6036113;28;20320;-66
2023/06/26 13:22:05;;;;;;;7.80;3.95;;;;;;;25.26;59.60;100728.38;6035561;28;20389;-66
2023/06/26 13:25:00;;;;;;;8.00;3.75;;;;;;;24.79;60.50;100716.81;6038271;28;20066;-65
2023/06/26 13:27:55;;;;;;;10.27;3.80;;;;;;;25.10;61.54;100720.16;6033699;28;20033;-65
2023/06/26 13:30:51;;;;;;;5.77;3.43;;;;;;;25.11;61.40;100708.25;6027074;28;20061;-66
2023/06/26 13:33:48;;;;;;;5.17;3.30;;;;;;;24.92;61.56;100687.78;6029054;28;20285;-66
2023/06/26 13:36:43;;;;;;;6.55;3.80;;;;;;;24.47;63.70;100699.25;6034556;28;20085;-66